createdAt,value
2022-08-25T00:00:14.685Z,98297.78
2022-08-25T00:03:01.843Z,98290.34
2022-08-25T00:05:32.332Z,98295.50
2022-08-25T00:08:02.940Z,98288.88
2022-08-25T00:10:30.486Z,98298.81
2022-08-25T00:12:57.944Z,98296.66
2022-08-25T00:15:25.630Z,98295.81
2022-08-25T00:17:52.996Z,98300.81
2022-08-25T00:20:20.955Z,98304.13
2022-08-25T00:22:49.434Z,98296.66
2022-08-25T00:25:16.970Z,98291.66
2022-08-25T00:27:44.734Z,98294.13
2022-08-25T00:30:15.960Z,98294.31
2022-08-25T00:32:44.436Z,98283.03
2022-08-25T00:35:23.581Z,98285.88
2022-08-25T00:37:50.799Z,98279.72
2022-08-25T00:40:18.496Z,98281.56
2022-08-25T00:42:46.767Z,98281.69
2022-08-25T00:45:14.029Z,98278.00
2022-08-25T00:47:41.553Z,98276.50
2022-08-25T00:50:11.749Z,98285.47
2022-08-25T00:52:45.824Z,98273.31
2022-08-25T00:55:25.617Z,98274.13
2022-08-25T00:58:16.058Z,98273.81
2022-08-25T01:00:49.778Z,98270.63
2022-08-25T01:03:19.265Z,98278.59
2022-08-25T01:05:48.024Z,98276.28
2022-08-25T01:08:19.678Z,98273.16
2022-08-25T01:10:50.281Z,98272.66
2022-08-25T01:13:29.155Z,98271.66
2022-08-25T01:15:58.833Z,98274.63
2022-08-25T01:18:28.487Z,98269.78
2022-08-25T01:20:58.499Z,98271.31
2022-08-25T01:23:27.092Z,98266.34
2022-08-25T01:26:09.339Z,98276.78
2022-08-25T01:28:37.622Z,98270.50
2022-08-25T01:31:24.030Z,98268.66
2022-08-25T01:33:51.971Z,98271.81
2022-08-25T01:36:21.893Z,98270.66
2022-08-25T01:38:49.660Z,98271.38
2022-08-25T01:41:51.434Z,98266.06
2022-08-25T01:44:19.355Z,98260.44
2022-08-25T01:46:46.648Z,98255.94
2022-08-25T01:49:13.869Z,98256.28
2022-08-25T01:51:51.455Z,98252.97
2022-08-25T01:54:18.878Z,98251.66
2022-08-25T01:56:46.370Z,98255.47
2022-08-25T01:59:21.637Z,98255.47
2022-08-25T02:02:00.193Z,98251.16
2022-08-25T02:04:32.360Z,98247.84
2022-08-25T02:07:03.747Z,98249.34
2022-08-25T02:09:30.985Z,98252.81
2022-08-25T02:11:58.293Z,98252.81
2022-08-25T02:14:26.378Z,98248.03
2022-08-25T02:16:55.253Z,98246.53
2022-08-25T02:19:24.891Z,98252.00
2022-08-25T02:21:52.923Z,98245.38
2022-08-25T02:24:20.902Z,98249.50
2022-08-25T02:26:48.981Z,98242.84
2022-08-25T02:29:17.334Z,98243.56
2022-08-25T02:31:45.959Z,98247.03
2022-08-25T02:34:14.343Z,98244.84
2022-08-25T02:36:43.864Z,98237.06
2022-08-25T02:39:13.101Z,98248.19
2022-08-25T02:41:40.875Z,98249.50
2022-08-25T02:44:09.215Z,98250.19
2022-08-25T02:46:38.752Z,98248.34
2022-08-25T02:49:07.713Z,98252.50
2022-08-25T02:51:36.310Z,98242.19
2022-08-25T02:54:06.227Z,98241.53
2022-08-25T02:56:34.059Z,98245.69
2022-08-25T02:59:02.980Z,98240.06
2022-08-25T03:01:32.637Z,98241.22
2022-08-25T03:04:02.123Z,98236.25
2022-08-25T03:06:29.787Z,98234.59
2022-08-25T03:08:57.500Z,98230.28
2022-08-25T03:11:26.698Z,98227.94
2022-08-25T03:13:54.703Z,98220.66
2022-08-25T03:16:22.792Z,98227.94
2022-08-25T03:18:55.819Z,98220.97
2022-08-25T03:21:23.389Z,98219.81
2022-08-25T03:23:51.045Z,98219.81
2022-08-25T03:26:36.999Z,98224.28
2022-08-25T03:29:07.673Z,98218.47
2022-08-25T03:31:36.711Z,98220.97
2022-08-25T03:34:04.668Z,98219.31
2022-08-25T03:36:31.909Z,98219.97
2022-08-25T03:39:00.483Z,98224.28
2022-08-25T03:41:32.791Z,98219.47
2022-08-25T03:44:02.239Z,98220.28
2022-08-25T03:46:35.051Z,98223.94
2022-08-25T03:49:06.547Z,98219.28
2022-08-25T03:51:40.484Z,98212.16
2022-08-25T03:54:10.586Z,98222.47
2022-08-25T03:56:38.691Z,98226.41
2022-08-25T03:59:09.152Z,98226.94
2022-08-25T04:01:39.151Z,98225.25
2022-08-25T04:04:09.477Z,98228.59
2022-08-25T04:06:38.679Z,98227.78
2022-08-25T04:09:06.681Z,98230.56
2022-08-25T04:11:34.455Z,98226.59
2022-08-25T04:14:02.715Z,98223.28
2022-08-25T04:16:33.933Z,98229.91
2022-08-25T04:19:06.213Z,98224.41
2022-08-25T04:21:33.779Z,98224.19
2022-08-25T04:24:00.977Z,98228.19
2022-08-25T04:26:33.719Z,98232.81
2022-08-25T04:29:04.031Z,98224.72
2022-08-25T04:31:32.368Z,98225.38
2022-08-25T04:34:04.227Z,98226.34
2022-08-25T04:36:42.285Z,98228.28
2022-08-25T04:39:09.559Z,98233.41
2022-08-25T04:41:38.934Z,98225.38
2022-08-25T04:44:07.207Z,98220.06
2022-08-25T04:46:35.695Z,98224.81
2022-08-25T04:49:04.419Z,98228.41
2022-08-25T04:51:36.981Z,98235.47
2022-08-25T04:54:10.057Z,98235.25
2022-08-25T04:56:40.761Z,98235.00
2022-08-25T04:59:12.611Z,98227.16
2022-08-25T05:01:42.776Z,98229.25
2022-08-25T05:04:27.842Z,98224.63
2022-08-25T05:06:58.514Z,98227.69
2022-08-25T05:09:26.859Z,98232.97
2022-08-25T05:11:54.938Z,98222.25
2022-08-25T05:14:26.380Z,98230.69
2022-08-25T05:16:55.972Z,98232.00
2022-08-25T05:19:24.586Z,98232.91
2022-08-25T05:21:52.787Z,98236.31
2022-08-25T05:24:22.288Z,98228.25
2022-08-25T05:26:50.066Z,98221.38
2022-08-25T05:29:17.611Z,98229.66
2022-08-25T05:31:50.053Z,98228.47
2022-08-25T05:34:19.717Z,98220.56
2022-08-25T05:36:48.652Z,98226.34
2022-08-25T05:39:16.335Z,98229.16
2022-08-25T05:41:44.403Z,98230.78
2022-08-25T05:44:12.953Z,98233.38
2022-08-25T05:46:40.195Z,98226.25
2022-08-25T05:49:07.699Z,98226.16
2022-08-25T05:51:34.859Z,98225.03
2022-08-25T05:54:02.129Z,98220.28
2022-08-25T05:56:30.141Z,98222.75
2022-08-25T05:58:57.342Z,98220.41
2022-08-25T06:01:48.460Z,98228.31
2022-08-25T06:04:18.145Z,98229.03
2022-08-25T06:06:45.359Z,98233.88
2022-08-25T06:09:12.720Z,98235.22
2022-08-25T06:11:41.422Z,98234.03
2022-08-25T06:14:10.889Z,98233.63
2022-08-25T06:16:40.312Z,98237.00
2022-08-25T06:19:10.297Z,98230.31
2022-08-25T06:21:40.964Z,98233.94
2022-08-25T06:24:15.180Z,98231.66
2022-08-25T06:26:44.260Z,98230.72
2022-08-25T06:29:14.189Z,98231.19
2022-08-25T06:31:42.685Z,98239.44
2022-08-25T06:34:11.849Z,98233.63
2022-08-25T06:36:40.605Z,98229.97
2022-08-25T06:39:09.191Z,98241.88
2022-08-25T06:41:38.843Z,98239.38
2022-08-25T06:44:06.793Z,98238.56
2022-08-25T06:46:36.132Z,98233.16
2022-08-25T06:49:06.736Z,98234.41
2022-08-25T06:51:38.238Z,98231.16
2022-08-25T06:54:08.153Z,98237.56
2022-08-25T06:56:36.783Z,98238.22
2022-08-25T06:59:07.322Z,98232.53
2022-08-25T07:01:35.270Z,98240.69
2022-08-25T07:04:10.325Z,98238.22
2022-08-25T07:06:39.678Z,98239.09
2022-08-25T07:09:10.873Z,98230.41
2022-08-25T07:11:40.768Z,98247.19
2022-08-25T07:14:11.850Z,98236.88
2022-08-25T07:16:41.762Z,98240.63
2022-08-25T07:19:15.070Z,98244.22
2022-08-25T07:21:45.908Z,98233.31
2022-08-25T07:24:14.945Z,98234.88
2022-08-25T07:26:44.354Z,98235.75
2022-08-25T07:29:15.920Z,98234.28
2022-08-25T07:31:43.575Z,98229.09
2022-08-25T07:34:29.744Z,98229.47
2022-08-25T07:36:58.289Z,98228.19
2022-08-25T07:39:29.013Z,98232.66
2022-08-25T07:41:56.848Z,98229.53
2022-08-25T07:44:27.983Z,98231.59
2022-08-25T07:46:56.470Z,98231.84
2022-08-25T07:49:26.582Z,98229.44
2022-08-25T07:52:06.497Z,98235.41
2022-08-25T07:54:37.993Z,98234.03
2022-08-25T07:57:08.701Z,98229.91
2022-08-25T07:59:41.432Z,98239.31
2022-08-25T08:02:17.945Z,98234.75
2022-08-25T08:04:53.860Z,98244.66
2022-08-25T08:07:41.864Z,98240.31
2022-08-25T08:13:07.007Z,98253.28
2022-08-25T08:15:36.192Z,98265.53
2022-08-25T08:18:05.345Z,98255.97
2022-08-25T08:20:42.275Z,98246.94
2022-08-25T08:23:12.067Z,98256.38
2022-08-25T08:25:39.362Z,98261.72
2022-08-25T08:28:07.071Z,98268.00
2022-08-25T08:30:36.739Z,98257.75
2022-08-25T08:33:10.207Z,98259.81
2022-08-25T08:35:41.604Z,98263.97
2022-08-25T08:38:16.123Z,98268.69
2022-08-25T08:42:11.592Z,98267.91
2022-08-25T08:44:45.403Z,98259.25
2022-08-25T08:48:01.073Z,98258.88
2022-08-25T08:50:54.711Z,98273.50
2022-08-25T08:53:46.481Z,98259.53
2022-08-25T08:56:57.601Z,98272.09
2022-08-25T08:59:35.356Z,98262.88
2022-08-25T09:02:06.178Z,98270.28
2022-08-25T09:04:59.487Z,98266.16
2022-08-25T09:07:41.274Z,98262.13
2022-08-25T09:10:11.137Z,98259.47
2022-08-25T09:13:19.526Z,98266.44
2022-08-25T09:16:38.144Z,98259.03
2022-08-25T09:20:02.158Z,98265.63
2022-08-25T09:22:47.836Z,98260.75
2022-08-25T09:25:52.374Z,98251.78
2022-08-25T09:28:33.873Z,98245.53
2022-08-25T09:31:29.612Z,98243.78
2022-08-25T09:34:02.298Z,98239.25
2022-08-25T09:36:35.450Z,98235.44
2022-08-25T09:39:06.860Z,98240.75
2022-08-25T09:41:53.085Z,98229.84
2022-08-25T09:44:28.138Z,98226.06
2022-08-25T09:47:28.024Z,98224.50
2022-08-25T09:50:04.466Z,98222.97
2022-08-25T09:52:41.367Z,98229.00
2022-08-25T09:55:09.405Z,98221.44
2022-08-25T09:57:43.433Z,98224.47
2022-08-25T10:00:35.103Z,98213.53
2022-08-25T10:03:24.938Z,98213.56
2022-08-25T10:05:56.899Z,98209.72
2022-08-25T10:08:55.668Z,98211.41
2022-08-25T10:11:47.688Z,98197.72
2022-08-25T10:14:36.449Z,98184.53
2022-08-25T10:17:31.490Z,98182.09
2022-08-25T10:20:35.147Z,98193.13
2022-08-25T10:23:15.212Z,98186.00
2022-08-25T10:25:59.433Z,98185.84
2022-08-25T10:29:05.300Z,98182.00
2022-08-25T10:31:56.651Z,98166.66
2022-08-25T10:34:53.946Z,98170.13
2022-08-25T10:38:00.878Z,98145.91
2022-08-25T10:40:46.276Z,98164.97
2022-08-25T10:43:49.844Z,98160.59
2022-08-25T10:47:05.948Z,98165.06
2022-08-25T10:49:49.963Z,98165.91
2022-08-25T10:52:58.233Z,98154.00
2022-08-25T10:55:50.448Z,98151.56
2022-08-25T10:58:35.514Z,98134.50
2022-08-25T11:01:15.774Z,98138.94
2022-08-25T11:04:05.107Z,98141.34
2022-08-25T11:06:52.645Z,98142.69
2022-08-25T11:09:30.846Z,98142.44
2022-08-25T11:12:19.058Z,98137.13
2022-08-25T11:14:54.326Z,98131.63
2022-08-25T11:17:52.759Z,98119.91
2022-08-25T11:20:59.904Z,98125.47
2022-08-25T11:23:49.479Z,98121.75
2022-08-25T11:26:31.905Z,98115.31
2022-08-25T11:29:16.627Z,98110.06
2022-08-25T11:31:53.564Z,98103.28
2022-08-25T11:34:22.973Z,98099.41
2022-08-25T11:37:01.332Z,98081.53
2022-08-25T11:40:08.750Z,98084.41
2022-08-25T11:42:43.046Z,98088.09
2022-08-25T11:45:43.750Z,98079.47
2022-08-25T11:48:42.992Z,98069.53
2022-08-25T11:51:39.834Z,98071.56
2022-08-25T11:54:36.538Z,98057.75
2022-08-25T11:57:13.165Z,98057.72
2022-08-25T11:59:53.276Z,98053.66
2022-08-25T12:02:47.680Z,98043.38
2022-08-25T12:05:22.113Z,98043.00
2022-08-25T12:08:26.688Z,98026.28
2022-08-25T12:11:10.910Z,98029.88
2022-08-25T12:13:50.941Z,98020.59
2022-08-25T12:17:00.429Z,98030.44
2022-08-25T12:19:36.947Z,98033.56
2022-08-25T12:22:05.729Z,98020.47
2022-08-25T12:24:48.140Z,98023.91
2022-08-25T12:27:34.305Z,98032.75
2022-08-25T12:30:29.205Z,98015.47
2022-08-25T12:33:37.269Z,98001.19
2022-08-25T12:36:11.462Z,97998.56
2022-08-25T12:38:52.427Z,97999.34
2022-08-25T12:41:33.568Z,97986.53
2022-08-25T12:44:41.433Z,97989.19
2022-08-25T12:47:27.246Z,97984.50
2022-08-25T12:50:35.235Z,97980.97
2022-08-25T12:53:35.217Z,97971.13
2022-08-25T12:56:07.949Z,97979.47
2022-08-25T12:59:03.762Z,97980.63
2022-08-25T13:02:03.149Z,97973.81
2022-08-25T13:04:52.411Z,97971.63
2022-08-25T13:07:35.754Z,97973.28
2022-08-25T13:10:44.112Z,97979.84
2022-08-25T13:13:31.572Z,97976.69
2022-08-25T13:16:06.641Z,97978.41
2022-08-25T13:18:39.809Z,97978.16
2022-08-25T13:21:07.376Z,97976.50
2022-08-25T13:23:41.843Z,97976.38
2022-08-25T13:26:22.480Z,97976.41
2022-08-25T13:29:10.925Z,97968.41
2022-08-25T13:31:55.721Z,97972.94
2022-08-25T13:34:34.980Z,97975.81
2022-08-25T13:37:30.545Z,97974.41
2022-08-25T13:40:18.797Z,97977.31
2022-08-25T13:42:56.104Z,97973.38
2022-08-25T13:45:31.780Z,97987.16
2022-08-25T13:47:59.600Z,97992.09
2022-08-25T13:50:27.225Z,97982.69
2022-08-25T13:53:11.393Z,97991.72
2022-08-25T13:55:53.868Z,97988.59
2022-08-25T13:58:39.321Z,97986.06
2022-08-25T14:01:48.994Z,97980.16
2022-08-25T14:04:51.190Z,97977.03
2022-08-25T14:07:22.784Z,97978.50
2022-08-25T14:10:34.834Z,97968.03
2022-08-25T14:13:36.474Z,97963.56
2022-08-25T14:16:38.797Z,97959.81
2022-08-25T14:19:20.255Z,97957.03
2022-08-25T14:21:49.626Z,97952.50
2022-08-25T14:24:23.790Z,97953.03
2022-08-25T14:26:54.043Z,97946.34
2022-08-25T14:29:22.496Z,97945.59
2022-08-25T14:31:52.505Z,97934.22
2022-08-25T14:34:26.143Z,97938.91
2022-08-25T14:36:57.626Z,97934.28
2022-08-25T14:39:29.416Z,97929.06
2022-08-25T14:41:58.403Z,97924.38
2022-08-25T14:44:25.616Z,97923.09
2022-08-25T14:47:00.318Z,97928.06
2022-08-25T14:49:36.553Z,97927.84
2022-08-25T14:52:22.708Z,97930.72
2022-08-25T14:54:50.756Z,97931.44
2022-08-25T14:57:18.464Z,97928.19
2022-08-25T14:59:46.332Z,97926.00
2022-08-25T15:02:21.000Z,97919.75
2022-08-25T15:04:55.680Z,97922.75
2022-08-25T15:07:43.104Z,97924.72
2022-08-25T15:10:13.602Z,97926.56
2022-08-25T15:12:47.841Z,97923.75
2022-08-25T15:15:16.752Z,97931.03
2022-08-25T15:17:47.327Z,97931.25
2022-08-25T15:20:16.816Z,97929.97
2022-08-25T15:22:45.516Z,97932.09
2022-08-25T15:25:13.019Z,97940.88
2022-08-25T15:27:40.969Z,97933.69
2022-08-25T15:30:10.062Z,97934.22
2022-08-25T15:32:41.195Z,97931.22
2022-08-25T15:35:11.867Z,97931.50
2022-08-25T15:37:43.037Z,97926.91
2022-08-25T15:40:11.007Z,97925.59
2022-08-25T15:42:39.414Z,97923.44
2022-08-25T15:45:11.575Z,97934.34
2022-08-25T15:47:38.958Z,97937.31
2022-08-25T15:50:16.252Z,97926.16
2022-08-25T15:52:46.401Z,97921.53
2022-08-25T15:55:17.242Z,97921.47
2022-08-25T15:57:44.969Z,97913.56
2022-08-25T16:00:16.776Z,97913.78
2022-08-25T16:02:46.240Z,97916.38
2022-08-25T16:05:16.422Z,97919.91
2022-08-25T16:07:46.199Z,97917.41
2022-08-25T16:10:19.716Z,97913.56
2022-08-25T16:12:47.543Z,97920.84
2022-08-25T16:15:16.136Z,97925.09
2022-08-25T16:17:45.966Z,97926.13
2022-08-25T16:20:17.266Z,97930.66
2022-08-25T16:22:45.526Z,97925.66
2022-08-25T16:25:14.123Z,97939.94
2022-08-25T16:27:41.547Z,97936.28
2022-08-25T16:30:17.570Z,97938.69
2022-08-25T16:32:46.768Z,97926.91
2022-08-25T16:35:14.521Z,97925.44
2022-08-25T16:37:41.810Z,97928.84
2022-08-25T16:40:14.765Z,97928.41
2022-08-25T16:42:42.661Z,97926.91
2022-08-25T16:45:10.450Z,97927.88
2022-08-25T16:47:38.205Z,97931.50
2022-08-25T16:50:10.818Z,97934.84
2022-08-25T16:52:58.302Z,97923.97
2022-08-25T16:55:38.913Z,97932.03
2022-08-25T16:58:13.377Z,97931.75
2022-08-25T17:00:41.348Z,97935.00
2022-08-25T17:03:11.218Z,97941.53
2022-08-25T17:05:43.351Z,97932.91
2022-08-25T17:08:30.581Z,97935.19
2022-08-25T17:11:14.202Z,97937.78
2022-08-25T17:13:50.097Z,97937.34
2022-08-25T17:16:19.821Z,97926.84
2022-08-25T17:18:48.583Z,97934.06
2022-08-25T17:21:24.569Z,97934.09
2022-08-25T17:23:54.354Z,97931.16
2022-08-25T17:26:28.079Z,97926.72
2022-08-25T17:29:01.295Z,97930.94
2022-08-25T17:31:30.108Z,97928.94
2022-08-25T17:33:58.707Z,97930.06
2022-08-25T17:36:27.086Z,97924.56
2022-08-25T17:38:56.751Z,97927.59
2022-08-25T17:41:25.132Z,97947.66
2022-08-25T17:43:52.370Z,97946.06
2022-08-25T17:46:21.582Z,97939.81
2022-08-25T17:48:49.088Z,97940.72
2022-08-25T17:51:16.505Z,97934.59
2022-08-25T17:53:44.947Z,97935.53
2022-08-25T17:56:18.567Z,97936.66
2022-08-25T17:58:47.784Z,97941.00
2022-08-25T18:01:28.746Z,97948.31
2022-08-25T18:03:57.494Z,97948.91
2022-08-25T18:06:26.789Z,97946.88
2022-08-25T18:08:58.724Z,97951.66
2022-08-25T18:11:28.858Z,97958.38
2022-08-25T18:13:58.264Z,97955.06
2022-08-25T18:16:27.025Z,97958.91
2022-08-25T18:18:55.813Z,97960.06
2022-08-25T18:21:25.630Z,97962.81
2022-08-25T18:23:58.883Z,97957.22
2022-08-25T18:26:27.145Z,97958.34
2022-08-25T18:28:54.611Z,97960.28
2022-08-25T18:31:22.276Z,97960.41
2022-08-25T18:33:51.010Z,97961.69
2022-08-25T18:36:22.959Z,97967.53
2022-08-25T18:39:09.597Z,97965.75
2022-08-25T18:41:42.558Z,97967.88
2022-08-25T18:44:11.191Z,97965.19
2022-08-25T18:46:40.297Z,97969.53
2022-08-25T18:49:08.530Z,97969.13
2022-08-25T18:51:36.531Z,97968.53
2022-08-25T18:54:05.357Z,97970.19
2022-08-25T18:56:34.694Z,97969.00
2022-08-25T18:59:02.722Z,97967.78
2022-08-25T19:01:30.484Z,97967.34
2022-08-25T19:03:57.988Z,97967.78
2022-08-25T19:06:25.716Z,97960.38
2022-08-25T19:08:53.543Z,97966.56
2022-08-25T19:11:22.251Z,97964.28
2022-08-25T19:13:51.576Z,97966.97
2022-08-25T19:16:40.968Z,97974.41
2022-08-25T19:19:13.215Z,97972.34
2022-08-25T19:21:41.943Z,97977.69
2022-08-25T19:24:12.267Z,97984.69
2022-08-25T19:26:40.552Z,97978.53
2022-08-25T19:29:17.501Z,97976.06
2022-08-25T19:31:47.935Z,97980.59
2022-08-25T19:34:28.220Z,97973.00
2022-08-25T19:37:01.292Z,97977.75
2022-08-25T19:39:30.549Z,97969.28
2022-08-25T19:41:58.211Z,97966.59
2022-08-25T19:44:28.235Z,97966.59
2022-08-25T19:46:57.158Z,97961.88
2022-08-25T19:49:31.754Z,97967.25
2022-08-25T19:52:03.165Z,97973.41
2022-08-25T19:54:44.614Z,97960.44
2022-08-25T19:57:20.774Z,97973.19
2022-08-25T19:59:56.196Z,97962.50
2022-08-25T20:02:28.322Z,97969.50
2022-08-25T20:05:00.007Z,97972.81
2022-08-25T20:07:31.076Z,97962.91
2022-08-25T20:10:00.457Z,97963.94
2022-08-25T20:12:28.712Z,97961.88
2022-08-25T20:14:56.759Z,97964.75
2022-08-25T20:17:26.169Z,97960.03
2022-08-25T20:19:59.881Z,97964.13
2022-08-25T20:22:31.728Z,97957.56
2022-08-25T20:25:07.348Z,97950.34
2022-08-25T20:27:52.402Z,97952.56
2022-08-25T20:30:28.992Z,97960.41
2022-08-25T20:32:58.238Z,97951.53
2022-08-25T20:35:29.222Z,97953.38
2022-08-25T20:37:59.207Z,97951.34
2022-08-25T20:40:30.490Z,97950.91
2022-08-25T20:43:03.402Z,97953.59
2022-08-25T20:45:31.346Z,97947.00
2022-08-25T20:47:58.783Z,97941.84
2022-08-25T20:50:27.907Z,97952.75
2022-08-25T20:52:56.871Z,97951.69
2022-08-25T20:55:24.666Z,97948.59
2022-08-25T20:57:53.932Z,97948.75
2022-08-25T21:00:23.454Z,97947.88
2022-08-25T21:02:53.006Z,97950.31
2022-08-25T21:05:20.415Z,97942.06
2022-08-25T21:07:48.951Z,97948.25
2022-08-25T21:10:16.923Z,97944.13
2022-08-25T21:12:45.309Z,97952.56
2022-08-25T21:15:18.107Z,97942.44
2022-08-25T21:17:50.850Z,97939.13
2022-08-25T21:20:18.479Z,97944.25
2022-08-25T21:22:45.753Z,97938.91
2022-08-25T21:25:13.673Z,97944.47
2022-08-25T21:27:41.388Z,97946.94
2022-08-25T21:30:12.384Z,97953.72
2022-08-25T21:32:39.743Z,97947.53
2022-08-25T21:35:23.134Z,97950.63
2022-08-25T21:37:53.357Z,97943.00
2022-08-25T21:40:23.036Z,97942.38
2022-08-25T21:42:52.399Z,97944.19
2022-08-25T21:45:20.961Z,97941.25
2022-08-25T21:47:49.289Z,97938.31
2022-08-25T21:50:16.858Z,97937.91
2022-08-25T21:52:44.413Z,97932.81
2022-08-25T21:55:15.774Z,97942.22
2022-08-25T21:57:44.157Z,97938.09
2022-08-25T22:00:13.637Z,97930.31
2022-08-25T22:02:43.858Z,97932.16
2022-08-25T22:05:12.251Z,97926.41
2022-08-25T22:07:43.924Z,97931.53
2022-08-25T22:10:16.768Z,97930.72
2022-08-25T22:12:47.377Z,97929.03
2022-08-25T22:15:17.837Z,97932.06
2022-08-25T22:17:48.111Z,97933.09
2022-08-25T22:20:18.220Z,97925.91
2022-08-25T22:22:45.772Z,97926.94
2022-08-25T22:25:14.152Z,97934.69
2022-08-25T22:27:41.981Z,97932.13
2022-08-25T22:30:10.767Z,97930.78
2022-08-25T22:32:38.217Z,97926.41
2022-08-25T22:35:08.086Z,97929.75
2022-08-25T22:37:36.933Z,97937.34
2022-08-25T22:40:05.845Z,97938.28
2022-08-25T22:42:33.362Z,97925.69
2022-08-25T22:45:01.286Z,97924.03
2022-08-25T22:47:28.725Z,97930.03
2022-08-25T22:49:58.597Z,97926.19
2022-08-25T22:52:33.736Z,97920.56
2022-08-25T22:55:03.169Z,97919.16
2022-08-25T22:57:30.698Z,97924.94
2022-08-25T22:59:59.332Z,97913.88
2022-08-25T23:02:30.306Z,97919.09
2022-08-25T23:04:57.978Z,97912.25
2022-08-25T23:07:29.311Z,97909.13
2022-08-25T23:10:02.651Z,97909.94
2022-08-25T23:12:30.756Z,97903.22
2022-08-25T23:14:58.105Z,97901.41
2022-08-25T23:17:25.615Z,97901.44
2022-08-25T23:19:53.042Z,97906.75
2022-08-25T23:22:20.311Z,97902.56
2022-08-25T23:24:53.471Z,97900.81
2022-08-25T23:27:22.009Z,97896.59
2022-08-25T23:29:51.050Z,97903.28
2022-08-25T23:32:18.865Z,97902.03
2022-08-25T23:34:47.191Z,97902.47
2022-08-25T23:37:18.379Z,97896.94
2022-08-25T23:39:49.856Z,97897.44
2022-08-25T23:42:19.844Z,97900.72
2022-08-25T23:44:49.357Z,97898.25
2022-08-25T23:47:18.473Z,97898.03
2022-08-25T23:49:46.265Z,97895.53
2022-08-25T23:52:17.336Z,97894.22
2022-08-25T23:54:46.285Z,97896.88
2022-08-25T23:57:13.605Z,97899.31
2022-08-25T23:59:42.304Z,97887.75
